Time;durP1;ratioP1;P1;durP2;ratioP2;P2;SDS_P1;SDS_P2;PMS_P1;PMS_P2;Temp;Humidity;BMP_temperature;BMP_pressure;BME280_temperature;BME280_humidity;BME280_pressure;Samples;Min_cycle;Max_cycle;Signal;HPM_P1;HPM_P2
2023/02/03 00:01:53;;;;;;;0.85;0.50;;;;;;;;;;5057296;28;20021;-46
2023/02/03 00:04:19;;;;;;;1.17;0.47;;;;;;;;;;5055793;28;20564;-45
2023/02/03 00:06:45;;;;;;;0.80;0.50;;;;;;;;;;5057515;28;20102;-43
2023/02/03 00:09:11;;;;;;;1.35;0.68;;;;;;;;;;5064484;28;20393;-43
2023/02/03 00:11:37;;;;;;;1.77;0.70;;;;;;;;;;5066459;28;20024;-44
2023/02/03 00:14:04;;;;;;;1.05;0.50;;;;;;;;;;5066675;28;20029;-44
2023/02/03 00:16:30;;;;;;;0.63;0.40;;;;;;;;;;5068483;28;20028;-43
2023/02/03 00:18:56;;;;;;;1.55;0.60;;;;;;;;;;5065666;28;20037;-44
2023/02/03 00:21:22;;;;;;;0.85;0.40;;;;;;;;;;5067909;28;20081;-44
2023/02/03 00:23:48;;;;;;;1.08;0.40;;;;;;;;;;5065349;28;20029;-44
2023/02/03 00:26:15;;;;;;;1.30;0.63;;;;;;;;;;5063675;28;20025;-46
2023/02/03 00:28:41;;;;;;;1.35;0.50;;;;;;;;;;5064305;28;20036;-45
2023/02/03 00:31:14;;;;;;;2.05;0.50;;;;;;;;;;5064015;28;20025;-44
2023/02/03 00:33:40;;;;;;;1.00;0.47;;;;;;;;;;5067260;28;20389;-44
2023/02/03 00:36:06;;;;;;;0.75;0.50;;;;;;;;;;5064734;28;20036;-44
2023/02/03 00:38:32;;;;;;;0.85;0.63;;;;;;;;;;5067662;28;20052;-44
2023/02/03 00:40:59;;;;;;;1.20;0.50;;;;;;;;;;5071359;28;20374;-43
2023/02/03 00:43:24;;;;;;;0.85;0.50;;;;;;;;;;5071997;28;20024;-44
2023/02/03 00:45:50;;;;;;;2.63;1.13;;;;;;;;;;5065408;28;20029;-43
2023/02/03 00:48:16;;;;;;;1.02;0.50;;;;;;;;;;5068146;28;20028;-43
2023/02/03 00:50:45;;;;;;;2.30;0.43;;;;;;;;;;5069246;28;20046;-44
2023/02/03 00:53:11;;;;;;;0.52;0.40;;;;;;;;;;5069716;28;20501;-43
2023/02/03 00:55:37;;;;;;;0.80;0.40;;;;;;;;;;5064457;28;20020;-43
2023/02/03 00:58:03;;;;;;;0.77;0.38;;;;;;;;;;5066313;28;20116;-43
2023/02/03 01:00:29;;;;;;;0.65;0.50;;;;;;;;;;5069960;28;20406;-43
2023/02/03 01:02:55;;;;;;;0.80;0.40;;;;;;;;;;5067475;28;20025;-43
2023/02/03 01:05:21;;;;;;;0.40;0.30;;;;;;;;;;5067410;28;20029;-43
2023/02/03 01:07:47;;;;;;;1.20;0.55;;;;;;;;;;5061330;28;20029;-44
2023/02/03 01:10:14;;;;;;;0.38;0.30;;;;;;;;;;5060715;28;20039;-45
2023/02/03 01:12:40;;;;;;;0.73;0.38;;;;;;;;;;5055424;28;20033;-43
2023/02/03 01:15:06;;;;;;;1.40;0.40;;;;;;;;;;5059774;28;20537;-43
2023/02/03 01:17:32;;;;;;;2.10;0.60;;;;;;;;;;5057777;28;20021;-43
2023/02/03 01:19:58;;;;;;;1.23;0.43;;;;;;;;;;5057913;28;20141;-45
2023/02/03 01:22:24;;;;;;;0.47;0.38;;;;;;;;;;5036553;28;20032;-43
2023/02/03 01:24:50;;;;;;;1.02;0.50;;;;;;;;;;5046074;28;20036;-43
2023/02/03 01:27:16;;;;;;;0.55;0.40;;;;;;;;;;5034229;28;20087;-44
2023/02/03 01:29:42;;;;;;;0.45;0.25;;;;;;;;;;5034582;28;20080;-43
2023/02/03 01:32:08;;;;;;;0.40;0.40;;;;;;;;;;5039905;28;20434;-43
2023/02/03 01:34:34;;;;;;;2.05;0.50;;;;;;;;;;5041136;28;20032;-43
2023/02/03 01:37:00;;;;;;;0.57;0.50;;;;;;;;;;5035320;28;20159;-44
2023/02/03 01:39:26;;;;;;;0.70;0.40;;;;;;;;;;5042087;28;20034;-43
2023/02/03 01:41:54;;;;;;;0.57;0.30;;;;;;;;;;5038971;28;20048;-43
2023/02/03 01:44:39;;;;;;;0.40;0.40;;;;;;;;;;5042837;28;20406;-43
2023/02/03 01:47:14;;;;;;;0.70;0.47;;;;;;;;;;5040925;28;20508;-44
2023/02/03 01:49:42;;;;;;;1.00;0.40;;;;;;;;;;5050724;28;20039;-43
2023/02/03 01:52:08;;;;;;;0.45;0.30;;;;;;;;;;5051002;28;20025;-44
2023/02/03 01:54:36;;;;;;;0.30;0.25;;;;;;;;;;5051397;28;20378;-44
2023/02/03 01:57:04;;;;;;;0.30;0.30;;;;;;;;;;5047450;28;20032;-44
2023/02/03 01:59:31;;;;;;;0.22;0.22;;;;;;;;;;5040416;28;20041;-43
2023/02/03 02:01:58;;;;;;;1.15;0.50;;;;;;;;;;5049364;28;20159;-44
2023/02/03 02:04:26;;;;;;;0.68;0.40;;;;;;;;;;5050778;28;20034;-45
2023/02/03 02:06:52;;;;;;;0.40;0.30;;;;;;;;;;5060602;28;20208;-43
2023/02/03 02:09:18;;;;;;;0.60;0.22;;;;;;;;;;5067431;28;20098;-44
2023/02/03 02:11:44;;;;;;;0.50;0.30;;;;;;;;;;5071879;28;20386;-43
2023/02/03 02:14:10;;;;;;;0.50;0.30;;;;;;;;;;5069212;28;20437;-44
2023/02/03 02:16:52;;;;;;;0.70;0.40;;;;;;;;;;5070525;28;20354;-43
2023/02/03 02:19:38;;;;;;;0.30;0.30;;;;;;;;;;5062939;28;20027;-43
2023/02/03 02:22:04;;;;;;;0.38;0.35;;;;;;;;;;5063560;28;20570;-43
2023/02/03 02:24:41;;;;;;;1.10;0.40;;;;;;;;;;5067094;28;20055;-43
2023/02/03 02:27:19;;;;;;;0.57;0.30;;;;;;;;;;5064146;28;20036;-44
2023/02/03 02:30:04;;;;;;;0.77;0.60;;;;;;;;;;5071008;28;20508;-43
2023/02/03 02:32:33;;;;;;;0.88;0.50;;;;;;;;;;5065452;28;20028;-44
2023/02/03 02:35:24;;;;;;;0.38;0.30;;;;;;;;;;5069491;28;20034;-45
2023/02/03 02:38:04;;;;;;;0.80;0.30;;;;;;;;;;5067564;28;20435;-43
2023/02/03 02:40:33;;;;;;;1.00;0.45;;;;;;;;;;5067201;28;20036;-44
2023/02/03 02:43:04;;;;;;;0.63;0.30;;;;;;;;;;5065327;28;20090;-45
2023/02/03 02:45:39;;;;;;;0.70;0.38;;;;;;;;;;5059453;28;20420;-43
2023/02/03 02:48:09;;;;;;;0.70;0.40;;;;;;;;;;5061095;28;20381;-43
2023/02/03 02:50:39;;;;;;;0.30;0.20;;;;;;;;;;5066926;28;20020;-44
2023/02/03 02:53:06;;;;;;;1.83;0.68;;;;;;;;;;5062672;28;20024;-43
2023/02/03 02:55:33;;;;;;;0.95;0.50;;;;;;;;;;5066653;28;20052;-49
2023/02/03 02:58:03;;;;;;;0.35;0.30;;;;;;;;;;5063821;28;20032;-44
2023/02/03 03:00:30;;;;;;;0.40;0.35;;;;;;;;;;5060640;28;20037;-44
2023/02/03 03:02:56;;;;;;;0.80;0.45;;;;;;;;;;5063866;28;20402;-44
2023/02/03 03:05:23;;;;;;;0.40;0.35;;;;;;;;;;5065810;28;20099;-44
2023/02/03 03:07:55;;;;;;;0.57;0.30;;;;;;;;;;5065634;28;20076;-45
2023/02/03 03:10:23;;;;;;;;;;;;;;;;;;5067399;28;20028;-43
2023/02/03 03:12:53;;;;;;;0.38;0.30;;;;;;;;;;5066170;28;20365;-46
2023/02/03 03:15:21;;;;;;;0.40;0.40;;;;;;;;;;5061849;28;20020;-44
2023/02/03 03:17:54;;;;;;;0.30;0.30;;;;;;;;;;5060768;28;20040;-43
2023/02/03 03:20:22;;;;;;;0.43;0.32;;;;;;;;;;5066321;28;20044;-44
2023/02/03 03:22:51;;;;;;;1.67;0.60;;;;;;;;;;5068087;28;20033;-43
2023/02/03 03:25:18;;;;;;;0.30;0.20;;;;;;;;;;5065724;28;20021;-43
2023/02/03 03:27:55;;;;;;;2.25;0.50;;;;;;;;;;5068942;28;20397;-43
2023/02/03 03:30:23;;;;;;;0.98;0.30;;;;;;;;;;5066433;28;20028;-44
2023/02/03 03:32:49;;;;;;;0.40;0.40;;;;;;;;;;5065208;28;20040;-47
2023/02/03 03:35:16;;;;;;;0.95;0.30;;;;;;;;;;5063954;28;20783;-44
2023/02/03 03:37:57;;;;;;;0.50;0.30;;;;;;;;;;5068846;28;20039;-44
2023/02/03 03:40:28;;;;;;;0.60;0.30;;;;;;;;;;5064987;28;20094;-43
2023/02/03 03:42:57;;;;;;;0.50;0.30;;;;;;;;;;5066648;28;20100;-48
2023/02/03 03:45:41;;;;;;;0.47;0.30;;;;;;;;;;5067100;28;20024;-45
2023/02/03 03:48:15;;;;;;;0.43;0.30;;;;;;;;;;5064924;28;20052;-43
2023/02/03 03:50:43;;;;;;;0.73;0.30;;;;;;;;;;5064067;28;20500;-43
2023/02/03 03:53:10;;;;;;;0.55;0.35;;;;;;;;;;5067840;28;20113;-45
2023/02/03 03:55:36;;;;;;;0.63;0.30;;;;;;;;;;5065123;28;20025;-44
2023/02/03 03:58:07;;;;;;;0.30;0.30;;;;;;;;;;5065058;28;20032;-44
2023/02/03 04:00:35;;;;;;;0.50;0.20;;;;;;;;;;5066560;28;20033;-44
2023/02/03 04:03:04;;;;;;;0.77;0.22;;;;;;;;;;5066107;28;20041;-45
2023/02/03 04:05:30;;;;;;;0.60;0.20;;;;;;;;;;5068592;28;20113;-43
2023/02/03 04:07:56;;;;;;;0.52;0.30;;;;;;;;;;5064740;28;20056;-44
2023/02/03 04:10:33;;;;;;;0.50;0.38;;;;;;;;;;5064024;28;20029;-44
2023/02/03 04:12:59;;;;;;;0.70;0.40;;;;;;;;;;5061718;28;20039;-45
2023/02/03 04:15:25;;;;;;;0.90;0.50;;;;;;;;;;5066743;28;20020;-43
2023/02/03 04:17:51;;;;;;;1.83;0.45;;;;;;;;;;5052241;28;20050;-45
2023/02/03 04:20:17;;;;;;;1.25;0.40;;;;;;;;;;5068813;28;20107;-44
2023/02/03 04:22:43;;;;;;;0.20;0.20;;;;;;;;;;5073543;28;20038;-47
2023/02/03 04:25:09;;;;;;;0.20;0.20;;;;;;;;;;5059857;28;20032;-48
2023/02/03 04:27:35;;;;;;;0.40;0.25;;;;;;;;;;5043222;28;20063;-46
2023/02/03 04:30:02;;;;;;;0.70;0.52;;;;;;;;;;5066962;28;20032;-45
2023/02/03 04:32:29;;;;;;;0.25;0.25;;;;;;;;;;5066646;28;20048;-45
2023/02/03 04:34:55;;;;;;;0.55;0.30;;;;;;;;;;5068943;28;20035;-45
2023/02/03 04:37:21;;;;;;;1.77;0.75;;;;;;;;;;5073202;28;20032;-46
2023/02/03 04:39:50;;;;;;;0.55;0.20;;;;;;;;;;5068373;28;20386;-47
2023/02/03 04:42:17;;;;;;;0.82;0.25;;;;;;;;;;5073045;28;20021;-45
2023/02/03 04:44:42;;;;;;;0.47;0.30;;;;;;;;;;5073359;28;20047;-44
2023/02/03 04:47:08;;;;;;;0.30;0.20;;;;;;;;;;5059034;28;20390;-46
2023/02/03 04:49:34;;;;;;;1.80;0.70;;;;;;;;;;5059056;28;20063;-45
2023/02/03 04:52:00;;;;;;;1.20;0.80;;;;;;;;;;5065299;28;20033;-44
2023/02/03 04:54:26;;;;;;;1.23;0.80;;;;;;;;;;5063647;28;20033;-47
2023/02/03 04:56:52;;;;;;;2.22;1.15;;;;;;;;;;5071797;28;20065;-44
2023/02/03 04:59:18;;;;;;;1.52;0.98;;;;;;;;;;5059346;28;20049;-46
2023/02/03 05:01:44;;;;;;;2.45;1.10;;;;;;;;;;5074013;28;20089;-48
2023/02/03 05:04:10;;;;;;;2.22;0.85;;;;;;;;;;5072357;28;20378;-44
2023/02/03 05:06:36;;;;;;;2.20;0.90;;;;;;;;;;5064495;28;20044;-45
2023/02/03 05:09:02;;;;;;;1.55;1.00;;;;;;;;;;5056767;28;20050;-44
2023/02/03 05:11:29;;;;;;;2.10;1.05;;;;;;;;;;5073396;28;20024;-44
2023/02/03 05:13:54;;;;;;;4.72;0.80;;;;;;;;;;5065953;28;20028;-44
2023/02/03 05:16:21;;;;;;;0.70;0.50;;;;;;;;;;5070819;28;20061;-44
2023/02/03 05:18:47;;;;;;;1.70;0.70;;;;;;;;;;5071896;28;20858;-43
2023/02/03 05:21:13;;;;;;;0.88;0.63;;;;;;;;;;5068252;28;20036;-43
2023/02/03 05:23:38;;;;;;;1.23;0.55;;;;;;;;;;5068219;28;20024;-44
2023/02/03 05:26:05;;;;;;;2.40;0.80;;;;;;;;;;5064627;28;20100;-44
2023/02/03 05:28:31;;;;;;;1.15;0.70;;;;;;;;;;5068215;28;20068;-43
2023/02/03 05:31:00;;;;;;;0.98;0.50;;;;;;;;;;5072578;28;20365;-43
2023/02/03 05:33:27;;;;;;;1.25;0.40;;;;;;;;;;5072382;28;20040;-43
2023/02/03 05:35:52;;;;;;;0.50;0.50;;;;;;;;;;5072168;28;20025;-43
2023/02/03 05:38:18;;;;;;;0.70;0.40;;;;;;;;;;5069502;28;20066;-43
2023/02/03 05:43:31;;;;;;;0.93;0.60;;;;;;;;;;5071388;28;20070;-44
2023/02/03 05:46:04;;;;;;;0.90;0.55;;;;;;;;;;5072497;28;20431;-44
2023/02/03 05:48:31;;;;;;;0.80;0.50;;;;;;;;;;5069145;28;20035;-44
2023/02/03 05:50:57;;;;;;;1.38;0.40;;;;;;;;;;5061365;28;20170;-46
2023/02/03 05:53:23;;;;;;;1.00;0.60;;;;;;;;;;5071162;28;20461;-44
2023/02/03 05:55:49;;;;;;;1.05;0.50;;;;;;;;;;5072328;28;20021;-43
2023/02/03 05:58:15;;;;;;;0.85;0.40;;;;;;;;;;5070691;28;20051;-45
2023/02/03 06:00:41;;;;;;;0.80;0.57;;;;;;;;;;5072246;28;20457;-43
2023/02/03 06:03:07;;;;;;;0.85;0.40;;;;;;;;;;5069538;28;20028;-43
2023/02/03 06:05:34;;;;;;;0.63;0.35;;;;;;;;;;5071198;28;20036;-43
2023/02/03 06:08:00;;;;;;;0.98;0.40;;;;;;;;;;5063030;28;20083;-45
2023/02/03 06:10:26;;;;;;;0.77;0.30;;;;;;;;;;5055285;28;20060;-44
2023/02/03 06:12:53;;;;;;;0.85;0.45;;;;;;;;;;5071812;28;20031;-44
2023/02/03 06:15:19;;;;;;;1.27;0.47;;;;;;;;;;5070981;28;20020;-44
2023/02/03 06:17:45;;;;;;;0.73;0.40;;;;;;;;;;5064587;28;20389;-44
2023/02/03 06:20:12;;;;;;;0.63;0.47;;;;;;;;;;5065095;28;20032;-45
2023/02/03 06:22:38;;;;;;;0.88;0.43;;;;;;;;;;5072152;28;20021;-45
2023/02/03 06:25:04;;;;;;;0.80;0.43;;;;;;;;;;5065781;28;20470;-43
2023/02/03 06:27:30;;;;;;;1.33;0.57;;;;;;;;;;5053003;28;20029;-43
2023/02/03 06:29:56;;;;;;;0.82;0.60;;;;;;;;;;5065340;28;20020;-48
2023/02/03 06:32:22;;;;;;;0.68;0.30;;;;;;;;;;5065402;28;20024;-44
2023/02/03 06:34:48;;;;;;;0.98;0.30;;;;;;;;;;5071155;28;20035;-46
2023/02/03 06:37:14;;;;;;;0.40;0.30;;;;;;;;;;5069286;28;20029;-44
2023/02/03 06:39:40;;;;;;;3.85;0.68;;;;;;;;;;5052789;28;20044;-43
2023/02/03 06:42:06;;;;;;;2.30;0.40;;;;;;;;;;5065116;28;20020;-44
2023/02/03 06:44:32;;;;;;;1.55;0.30;;;;;;;;;;5058534;28;20063;-43
2023/02/03 06:46:58;;;;;;;0.90;0.30;;;;;;;;;;5070490;28;20060;-44
2023/02/03 06:49:25;;;;;;;1.83;0.93;;;;;;;;;;5064253;28;20085;-47
2023/02/03 06:51:54;;;;;;;0.82;0.40;;;;;;;;;;5066164;28;20027;-43
2023/02/03 06:54:20;;;;;;;0.60;0.40;;;;;;;;;;5069169;28;20028;-44
2023/02/03 06:56:46;;;;;;;0.75;0.30;;;;;;;;;;5069767;28;20028;-45
2023/02/03 06:59:12;;;;;;;0.73;0.40;;;;;;;;;;5064792;28;20099;-44
2023/02/03 07:01:38;;;;;;;0.32;0.30;;;;;;;;;;5071039;28;20418;-46
2023/02/03 07:04:04;;;;;;;2.58;0.60;;;;;;;;;;5069485;28;20052;-44
2023/02/03 07:06:32;;;;;;;3.22;0.47;;;;;;;;;;5070066;28;20045;-45
2023/02/03 07:08:59;;;;;;;0.50;0.22;;;;;;;;;;5068380;28;20137;-46
2023/02/03 07:11:26;;;;;;;3.08;0.50;;;;;;;;;;5063884;28;20522;-45
2023/02/03 07:13:52;;;;;;;3.00;1.00;;;;;;;;;;5071156;28;20099;-44
2023/02/03 07:16:18;;;;;;;4.35;0.70;;;;;;;;;;5056154;28;20643;-44
2023/02/03 07:18:44;;;;;;;2.25;0.82;;;;;;;;;;5066373;28;20082;-44
2023/02/03 07:21:11;;;;;;;2.53;0.60;;;;;;;;;;5059746;28;20504;-45
2023/02/03 07:23:37;;;;;;;1.75;0.52;;;;;;;;;;5063570;28;20017;-44
2023/02/03 07:26:04;;;;;;;0.75;0.50;;;;;;;;;;5061445;28;20525;-43
2023/02/03 07:28:30;;;;;;;2.72;0.52;;;;;;;;;;5064751;28;20027;-44
2023/02/03 07:30:56;;;;;;;0.90;0.40;;;;;;;;;;5054679;28;20474;-44
2023/02/03 07:33:23;;;;;;;4.97;0.50;;;;;;;;;;5063751;28;20158;-45
2023/02/03 07:35:52;;;;;;;4.68;0.60;;;;;;;;;;5065953;28;20386;-45
2023/02/03 07:38:18;;;;;;;3.38;1.00;;;;;;;;;;5057559;28;20101;-44
2023/02/03 07:40:44;;;;;;;2.65;0.77;;;;;;;;;;5053283;28;20025;-45
2023/02/03 07:43:10;;;;;;;1.38;0.50;;;;;;;;;;5057536;28;20027;-43
2023/02/03 07:45:36;;;;;;;4.82;0.68;;;;;;;;;;5059983;28;20025;-44
2023/02/03 07:48:02;;;;;;;2.83;0.73;;;;;;;;;;5067634;28;20125;-45
2023/02/03 07:50:28;;;;;;;1.92;0.70;;;;;;;;;;5069540;28;20017;-44
2023/02/03 07:52:54;;;;;;;2.08;0.82;;;;;;;;;;5061877;28;20036;-44
2023/02/03 07:55:20;;;;;;;3.28;0.50;;;;;;;;;;5062522;28;20028;-45
2023/02/03 07:57:47;;;;;;;0.60;0.40;;;;;;;;;;5065681;28;20032;-46
2023/02/03 08:00:14;;;;;;;4.80;0.60;;;;;;;;;;5064487;28;20028;-45
2023/02/03 08:02:40;;;;;;;1.45;0.40;;;;;;;;;;5062179;28;20370;-44
2023/02/03 08:05:07;;;;;;;1.05;0.50;;;;;;;;;;5058327;28;20049;-44
2023/02/03 08:07:33;;;;;;;3.00;0.50;;;;;;;;;;5069288;28;20060;-44
2023/02/03 08:09:59;;;;;;;1.45;0.35;;;;;;;;;;5070490;28;20432;-44
2023/02/03 08:12:25;;;;;;;3.63;1.05;;;;;;;;;;5065495;28;20021;-44
2023/02/03 08:14:51;;;;;;;1.00;0.40;;;;;;;;;;5068173;28;20120;-45
2023/02/03 08:17:17;;;;;;;3.17;0.90;;;;;;;;;;5067099;28;20040;-44
2023/02/03 08:19:42;;;;;;;1.15;0.50;;;;;;;;;;5067085;28;20106;-45
2023/02/03 08:22:14;;;;;;;0.60;0.32;;;;;;;;;;5071441;28;20099;-44
2023/02/03 08:24:44;;;;;;;1.17;0.95;;;;;;;;;;5071398;28;20104;-44
2023/02/03 08:27:10;;;;;;;2.25;0.70;;;;;;;;;;5070229;28;20397;-46
2023/02/03 08:29:36;;;;;;;1.15;0.40;;;;;;;;;;5066592;28;20060;-45
2023/02/03 08:32:02;;;;;;;1.55;0.47;;;;;;;;;;5069319;28;20480;-47
2023/02/03 08:34:28;;;;;;;1.38;0.45;;;;;;;;;;5070319;28;20066;-44
2023/02/03 08:36:54;;;;;;;1.73;0.57;;;;;;;;;;5073687;28;20476;-45
2023/02/03 08:39:20;;;;;;;1.67;0.60;;;;;;;;;;5063721;28;20139;-44
2023/02/03 08:41:46;;;;;;;2.72;0.80;;;;;;;;;;5067068;28;20033;-44
2023/02/03 08:44:12;;;;;;;2.38;0.73;;;;;;;;;;5069416;28;20028;-45
2023/02/03 08:46:42;;;;;;;1.42;0.60;;;;;;;;;;5070531;28;20052;-45
2023/02/03 08:49:09;;;;;;;2.38;0.60;;;;;;;;;;5066082;28;20041;-47
2023/02/03 08:51:35;;;;;;;1.73;0.47;;;;;;;;;;5068379;28;20055;-44
2023/02/03 08:54:01;;;;;;;1.90;0.70;;;;;;;;;;5062047;28;20028;-44
2023/02/03 08:56:27;;;;;;;0.60;0.60;;;;;;;;;;5058693;28;20025;-45
2023/02/03 08:58:53;;;;;;;0.85;0.55;;;;;;;;;;5066902;28;20029;-46
2023/02/03 09:01:20;;;;;;;0.98;0.50;;;;;;;;;;5069457;28;20031;-44
2023/02/03 09:03:46;;;;;;;1.15;0.47;;;;;;;;;;5061431;28;20424;-46
2023/02/03 09:06:15;;;;;;;2.00;0.50;;;;;;;;;;5065761;28;20386;-48
2023/02/03 09:08:41;;;;;;;0.45;0.40;;;;;;;;;;5058503;28;20033;-46
2023/02/03 09:11:18;;;;;;;2.40;0.35;;;;;;;;;;5068374;28;20060;-44
2023/02/03 09:13:44;;;;;;;1.15;0.50;;;;;;;;;;5067838;28;20017;-45
2023/02/03 09:16:11;;;;;;;2.50;0.82;;;;;;;;;;5057126;28;20034;-44
2023/02/03 09:18:37;;;;;;;1.02;0.45;;;;;;;;;;5069056;28;20037;-44
2023/02/03 09:21:03;;;;;;;0.73;0.40;;;;;;;;;;5067565;28;20082;-44
2023/02/03 09:23:29;;;;;;;2.08;0.40;;;;;;;;;;5063659;28;20029;-44
2023/02/03 09:25:55;;;;;;;0.63;0.32;;;;;;;;;;5070087;28;20365;-45
2023/02/03 09:28:22;;;;;;;0.30;0.30;;;;;;;;;;5057370;28;20044;-45
2023/02/03 09:30:48;;;;;;;0.52;0.40;;;;;;;;;;5066506;28;20417;-45
2023/02/03 09:33:14;;;;;;;1.40;0.50;;;;;;;;;;5065656;28;20017;-46
2023/02/03 09:35:40;;;;;;;0.95;0.40;;;;;;;;;;5067411;28;20458;-46
2023/02/03 09:38:05;;;;;;;1.63;0.40;;;;;;;;;;5059950;28;20115;-45
2023/02/03 09:40:33;;;;;;;0.45;0.30;;;;;;;;;;5063123;28;20173;-45
2023/02/03 09:43:23;;;;;;;0.40;0.40;;;;;;;;;;5069217;28;20532;-44
2023/02/03 09:45:50;;;;;;;1.00;0.40;;;;;;;;;;5061313;28;20490;-44
2023/02/03 09:48:19;;;;;;;0.85;0.40;;;;;;;;;;5069927;28;20094;-44
2023/02/03 09:50:46;;;;;;;0.57;0.35;;;;;;;;;;5066491;28;20103;-43
2023/02/03 09:53:23;;;;;;;0.40;0.30;;;;;;;;;;5066854;28;20089;-44
2023/02/03 09:55:49;;;;;;;2.63;0.95;;;;;;;;;;5065502;28;20075;-44
2023/02/03 09:58:19;;;;;;;0.70;0.40;;;;;;;;;;5069131;28;20031;-44
2023/02/03 10:00:50;;;;;;;1.00;0.40;;;;;;;;;;5059269;28;20021;-45
2023/02/03 10:03:20;;;;;;;1.95;0.60;;;;;;;;;;5063482;28;20932;-44
2023/02/03 10:06:05;;;;;;;0.60;0.60;;;;;;;;;;5058122;28;20020;-46
2023/02/03 10:08:40;;;;;;;0.95;0.50;;;;;;;;;;5061375;28;20082;-44
2023/02/03 10:11:22;;;;;;;1.00;0.40;;;;;;;;;;5054879;28;20059;-45
2023/02/03 10:13:48;;;;;;;;;;;;;;;;;;5066265;28;20052;-46
2023/02/03 10:16:34;;;;;;;2.30;0.60;;;;;;;;;;5059810;28;20385;-45
2023/02/03 10:19:02;;;;;;;1.63;0.60;;;;;;;;;;5064554;28;20087;-44
2023/02/03 10:21:35;;;;;;;1.02;0.68;;;;;;;;;;5065886;28;20028;-44
2023/02/03 10:24:03;;;;;;;3.60;0.60;;;;;;;;;;5069235;28;20021;-44
2023/02/03 10:26:29;;;;;;;1.92;0.60;;;;;;;;;;5059648;28;20040;-45
2023/02/03 10:29:02;;;;;;;1.88;0.73;;;;;;;;;;5053125;28;20078;-44
2023/02/03 10:31:31;;;;;;;1.42;0.50;;;;;;;;;;5064912;28;20542;-44
2023/02/03 10:34:07;;;;;;;1.90;0.60;;;;;;;;;;5063814;28;20091;-46
2023/02/03 10:36:53;;;;;;;1.52;0.57;;;;;;;;;;5060597;28;20107;-45
2023/02/03 10:39:38;;;;;;;0.88;0.50;;;;;;;;;;5056998;28;20032;-45
2023/02/03 10:42:04;;;;;;;2.22;0.60;;;;;;;;;;5066006;28;21376;-44
2023/02/03 10:44:36;;;;;;;2.88;0.60;;;;;;;;;;5066945;28;20108;-44
2023/02/03 10:47:09;;;;;;;0.65;0.47;;;;;;;;;;5065580;28;20035;-44
2023/02/03 10:49:35;;;;;;;1.92;0.88;;;;;;;;;;5054838;28;20029;-45
2023/02/03 10:52:03;;;;;;;1.13;0.70;;;;;;;;;;5062541;28;20021;-44
2023/02/03 10:54:31;;;;;;;1.48;0.80;;;;;;;;;;5063306;28;20031;-45
2023/02/03 10:57:01;;;;;;;2.05;0.70;;;;;;;;;;5058527;28;20100;-44
2023/02/03 10:59:29;;;;;;;1.85;0.90;;;;;;;;;;5056453;28;20035;-44
2023/02/03 11:01:55;;;;;;;1.67;0.50;;;;;;;;;;5064185;28;20031;-45
2023/02/03 11:04:28;;;;;;;3.75;0.80;;;;;;;;;;5067423;28;21267;-44
2023/02/03 11:07:02;;;;;;;3.75;0.90;;;;;;;;;;5059740;28;20048;-44
2023/02/03 11:09:30;;;;;;;2.70;0.60;;;;;;;;;;5058911;28;20056;-46
2023/02/03 11:12:13;;;;;;;2.00;0.73;;;;;;;;;;5065385;28;20052;-44
2023/02/03 11:14:42;;;;;;;0.70;0.55;;;;;;;;;;5061813;28;20079;-44
2023/02/03 11:17:12;;;;;;;2.45;0.50;;;;;;;;;;5063616;28;20020;-45
2023/02/03 11:19:38;;;;;;;2.00;0.70;;;;;;;;;;5050059;28;20466;-45
2023/02/03 11:22:05;;;;;;;1.23;0.80;;;;;;;;;;5064406;28;20595;-47
2023/02/03 11:24:38;;;;;;;0.35;0.30;;;;;;;;;;5057582;28;20116;-45
2023/02/03 11:27:06;;;;;;;4.35;1.73;;;;;;;;;;5059820;28;20555;-46
2023/02/03 11:29:33;;;;;;;2.38;0.90;;;;;;;;;;5061584;28;20033;-46
2023/02/03 11:32:02;;;;;;;3.30;0.93;;;;;;;;;;5060594;28;20082;-45
2023/02/03 11:34:33;;;;;;;2.80;0.70;;;;;;;;;;5067853;28;20107;-46
2023/02/03 11:37:10;;;;;;;3.25;1.00;;;;;;;;;;5058463;28;20366;-45
2023/02/03 11:39:36;;;;;;;2.88;0.70;;;;;;;;;;5066678;28;20021;-46
2023/02/03 11:42:02;;;;;;;2.97;1.25;;;;;;;;;;5056281;28;20347;-45
2023/02/03 11:44:32;;;;;;;4.00;1.45;;;;;;;;;;5059009;28;20413;-46
2023/02/03 11:47:01;;;;;;;2.15;0.50;;;;;;;;;;5062059;28;20025;-45
2023/02/03 11:49:37;;;;;;;2.10;1.10;;;;;;;;;;5063894;28;20036;-45
2023/02/03 11:52:26;;;;;;;3.33;1.95;;;;;;;;;;5064545;28;20441;-46
2023/02/03 11:55:00;;;;;;;4.85;2.40;;;;;;;;;;5029092;28;20035;-44
2023/02/03 11:57:35;;;;;;;3.40;2.45;;;;;;;;;;5055193;28;20033;-47
2023/02/03 12:00:18;;;;;;;3.17;2.05;;;;;;;;;;5062414;28;20053;-44
2023/02/03 12:02:57;;;;;;;4.43;3.00;;;;;;;;;;5063772;28;20017;-44
2023/02/03 12:05:42;;;;;;;3.33;2.20;;;;;;;;;;5053708;28;20033;-46
2023/02/03 12:08:14;;;;;;;3.08;1.75;;;;;;;;;;5061257;28;20381;-45
2023/02/03 12:10:46;;;;;;;2.83;1.70;;;;;;;;;;5062927;28;20430;-48
2023/02/03 12:13:12;;;;;;;;;;;;;;;;;;5064976;28;20024;-45
2023/02/03 12:15:51;;;;;;;3.40;1.27;;;;;;;;;;5057784;28;19908;-47
2023/02/03 12:18:30;;;;;;;2.83;1.27;;;;;;;;;;5053782;28;20064;-45
2023/02/03 12:21:04;;;;;;;4.20;1.80;;;;;;;;;;5059539;28;20538;-48
2023/02/03 12:23:48;;;;;;;2.17;1.25;;;;;;;;;;5056891;28;20044;-46
2023/02/03 12:26:22;;;;;;;2.28;0.90;;;;;;;;;;5056746;28;20497;-45
2023/02/03 12:29:02;;;;;;;1.58;1.10;;;;;;;;;;5041133;28;20032;-46
2023/02/03 12:31:40;;;;;;;3.05;1.92;;;;;;;;;;5060152;28;20024;-45
2023/02/03 12:34:18;;;;;;;2.78;1.00;;;;;;;;;;5056913;28;20571;-47
2023/02/03 12:37:08;;;;;;;2.15;0.77;;;;;;;;;;5065018;28;20029;-47
2023/02/03 12:39:43;;;;;;;3.08;1.35;;;;;;;;;;5066076;28;20035;-49
2023/02/03 12:42:16;;;;;;;1.85;0.60;;;;;;;;;;5065010;28;20033;-45
2023/02/03 12:44:52;;;;;;;2.63;0.85;;;;;;;;;;5069693;28;20038;-45
2023/02/03 12:47:38;;;;;;;1.98;0.82;;;;;;;;;;5073077;28;20032;-45
2023/02/03 12:50:04;;;;;;;5.32;1.00;;;;;;;;;;5070573;28;20021;-45
2023/02/03 12:53:06;;;;;;;0.73;0.52;;;;;;;;;;5068592;28;20429;-45
2023/02/03 12:55:35;;;;;;;4.72;1.00;;;;;;;;;;5003715;28;20030;-46
2023/02/03 12:58:04;;;;;;;3.65;1.40;;;;;;;;;;5049103;28;20055;-47
2023/02/03 13:00:36;;;;;;;6.03;1.30;;;;;;;;;;5062818;28;20029;-49
2023/02/03 13:03:10;;;;;;;3.90;1.17;;;;;;;;;;5067855;28;20351;-46
2023/02/03 13:05:36;;;;;;;3.80;0.95;;;;;;;;;;5073122;28;20024;-46
2023/02/03 13:08:15;;;;;;;7.50;1.27;;;;;;;;;;5068348;28;20478;-46
2023/02/03 13:10:52;;;;;;;8.00;1.60;;;;;;;;;;5069449;28;20025;-50
2023/02/03 13:13:22;;;;;;;4.13;1.60;;;;;;;;;;5065277;28;20066;-47
2023/02/03 13:15:49;;;;;;;3.08;1.05;;;;;;;;;;5072013;28;20439;-44
2023/02/03 13:18:25;;;;;;;5.63;2.58;;;;;;;;;;5064067;28;20060;-49
2023/02/03 13:20:52;;;;;;;3.70;1.38;;;;;;;;;;5069907;28;20108;-50
2023/02/03 13:23:18;;;;;;;5.57;1.20;;;;;;;;;;5064587;28;20105;-45
2023/02/03 13:26:09;;;;;;;3.13;1.45;;;;;;;;;;5071057;28;20032;-47
2023/02/03 13:28:41;;;;;;;5.60;1.73;;;;;;;;;;5066510;28;20021;-48
2023/02/03 13:31:07;;;;;;;6.55;1.45;;;;;;;;;;5069688;28;20488;-47
2023/02/03 13:33:41;;;;;;;3.25;1.30;;;;;;;;;;5069644;28;20032;-47
2023/02/03 13:36:26;;;;;;;6.18;1.60;;;;;;;;;;5067278;28;20055;-52
2023/02/03 13:39:10;;;;;;;3.53;1.30;;;;;;;;;;5058660;28;20052;-46
2023/02/03 13:41:41;;;;;;;4.30;1.35;;;;;;;;;;5062952;28;20117;-49
2023/02/03 13:44:11;;;;;;;6.97;2.25;;;;;;;;;;5070922;28;20021;-48
2023/02/03 13:46:37;;;;;;;7.47;1.60;;;;;;;;;;5066977;28;20028;-49
2023/02/03 13:49:05;;;;;;;6.28;1.98;;;;;;;;;;5068835;28;20068;-47
2023/02/03 13:51:36;;;;;;;3.40;1.20;;;;;;;;;;5066549;28;20027;-49
2023/02/03 13:54:07;;;;;;;3.30;1.02;;;;;;;;;;5068309;28;20104;-47
2023/02/03 13:56:34;;;;;;;4.32;1.50;;;;;;;;;;5060623;28;20052;-51
2023/02/03 13:59:02;;;;;;;3.63;1.63;;;;;;;;;;5062791;28;20520;-46
2023/02/03 14:01:38;;;;;;;4.07;2.03;;;;;;;;;;5071712;28;20028;-49
2023/02/03 14:04:07;;;;;;;3.13;1.30;;;;;;;;;;5064276;28;20021;-48
2023/02/03 14:06:35;;;;;;;4.32;1.42;;;;;;;;;;5065192;28;20183;-48
2023/02/03 14:09:02;;;;;;;4.13;1.50;;;;;;;;;;5055258;28;20083;-47
2023/02/03 14:11:34;;;;;;;4.50;1.77;;;;;;;;;;5068879;28;20028;-49
2023/02/03 14:14:00;;;;;;;;;;;;;;;;;;5063735;28;20029;-47
2023/02/03 14:16:26;;;;;;;3.47;1.20;;;;;;;;;;5061671;28;19909;-48
2023/02/03 14:18:53;;;;;;;4.55;1.73;;;;;;;;;;5070002;28;20103;-48
2023/02/03 14:21:21;;;;;;;4.25;1.50;;;;;;;;;;5065874;28;20013;-48
2023/02/03 14:24:13;;;;;;;3.88;1.30;;;;;;;;;;5068236;28;20104;-51
2023/02/03 14:26:44;;;;;;;3.28;1.35;;;;;;;;;;5057141;28;20442;-47
2023/02/03 14:29:22;;;;;;;9.93;2.20;;;;;;;;;;5059641;28;20040;-49
2023/02/03 14:31:52;;;;;;;6.03;1.48;;;;;;;;;;5057981;28;20056;-51
2023/02/03 14:34:27;;;;;;;4.00;1.45;;;;;;;;;;5063631;28;20031;-48
2023/02/03 14:36:54;;;;;;;5.38;1.60;;;;;;;;;;5065711;28;20108;-50
2023/02/03 14:39:21;;;;;;;2.53;1.38;;;;;;;;;;5066431;28;20033;-50
2023/02/03 14:41:55;;;;;;;5.72;2.10;;;;;;;;;;5057529;28;20078;-48
2023/02/03 14:44:26;;;;;;;2.97;1.25;;;;;;;;;;5052033;28;20024;-49
2023/02/03 14:46:52;;;;;;;2.08;1.27;;;;;;;;;;5066246;28;20028;-49
2023/02/03 14:49:28;;;;;;;4.30;1.30;;;;;;;;;;5053311;28;20029;-51
2023/02/03 14:52:12;;;;;;;4.32;1.75;;;;;;;;;;5056757;28;20039;-52
2023/02/03 14:54:44;;;;;;;6.20;1.50;;;;;;;;;;5062566;28;20055;-49
2023/02/03 14:57:18;;;;;;;3.28;1.48;;;;;;;;;;5059759;28;20024;-50
2023/02/03 14:59:48;;;;;;;2.20;1.15;;;;;;;;;;5063199;28;20373;-51